Time;durP1;ratioP1;P1;durP2;ratioP2;P2;SDS_P1;SDS_P2;PMS_P1;PMS_P2;Temp;Humidity;BMP_temperature;BMP_pressure;BME280_temperature;BME280_humidity;BME280_pressure;Samples;Min_cycle;Max_cycle;Signal;HPM_P1;HPM_P2
2023/08/10 00:01:23;;;;;;;104.20;7.10;;;;;;;;;;5082025;28;20867;-54
2023/08/10 00:03:48;;;;;;;158.05;11.02;;;;;;;;;;5083125;28;20269;-53
2023/08/10 00:06:14;;;;;;;85.77;6.83;;;;;;;;;;5084262;28;20036;-53
2023/08/10 00:08:39;;;;;;;98.47;6.88;;;;;;;;;;5081323;28;20336;-53
2023/08/10 00:11:04;;;;;;;74.83;5.93;;;;;;;;;;5081669;28;20067;-54
2023/08/10 00:13:30;;;;;;;109.15;7.47;;;;;;;;;;5084235;28;20352;-53
2023/08/10 00:15:55;;;;;;;164.77;10.88;;;;;;;;;;5080391;28;20047;-53
2023/08/10 00:18:20;;;;;;;77.93;6.28;;;;;;;;;;5065086;28;20040;-53
2023/08/10 00:20:46;;;;;;;108.87;7.57;;;;;;;;;;5080802;28;20040;-52
2023/08/10 00:23:11;;;;;;;87.70;6.55;;;;;;;;;;5083733;28;20273;-53
2023/08/10 00:25:36;;;;;;;82.25;6.05;;;;;;;;;;5082345;28;20694;-52
2023/08/10 00:28:02;;;;;;;169.40;11.37;;;;;;;;;;5081950;28;20417;-52
2023/08/10 00:30:28;;;;;;;104.55;7.68;;;;;;;;;;5082064;27;20254;-52
2023/08/10 00:32:53;;;;;;;133.23;8.77;;;;;;;;;;5081853;28;20024;-52
2023/08/10 00:35:18;;;;;;;89.05;6.60;;;;;;;;;;5081445;28;20329;-53
2023/08/10 00:37:43;;;;;;;97.78;6.70;;;;;;;;;;5083785;28;20015;-54
2023/08/10 00:40:12;;;;;;;76.95;5.95;;;;;;;;;;5082056;28;20027;-53
2023/08/10 00:42:37;;;;;;;100.90;7.13;;;;;;;;;;5082061;28;20018;-53
2023/08/10 00:45:03;;;;;;;167.98;11.15;;;;;;;;;;5080970;28;20028;-53
2023/08/10 00:47:28;;;;;;;78.38;5.93;;;;;;;;;;5081864;28;20642;-52
2023/08/10 00:49:53;;;;;;;149.15;9.63;;;;;;;;;;5079090;28;20018;-54
2023/08/10 00:52:19;;;;;;;97.38;6.75;;;;;;;;;;5081709;28;20224;-54
2023/08/10 00:54:44;;;;;;;110.93;7.00;;;;;;;;;;5082701;28;20019;-53
2023/08/10 00:57:10;;;;;;;98.15;6.80;;;;;;;;;;5078340;28;20634;-53
2023/08/10 00:59:37;;;;;;;120.50;7.82;;;;;;;;;;5082653;28;20020;-53
2023/08/10 01:02:03;;;;;;;150.40;10.15;;;;;;;;;;5080674;28;20036;-52
2023/08/10 01:04:28;;;;;;;98.28;7.18;;;;;;;;;;5082428;28;20544;-53
2023/08/10 01:07:05;;;;;;;187.20;11.87;;;;;;;;;;5080515;28;20136;-54
2023/08/10 01:09:30;;;;;;;133.68;8.40;;;;;;;;;;5080908;28;20258;-54
2023/08/10 01:12:02;;;;;;;149.20;9.73;;;;;;;;;;5080359;28;20028;-52
2023/08/10 01:14:39;;;;;;;83.78;6.22;;;;;;;;;;5083318;28;20315;-52
2023/08/10 01:17:07;;;;;;;171.00;11.20;;;;;;;;;;5080051;28;20063;-52
2023/08/10 01:19:35;;;;;;;129.05;8.23;;;;;;;;;;5080911;28;20035;-53
2023/08/10 01:22:19;;;;;;;159.55;10.43;;;;;;;;;;5080306;28;20031;-53
2023/08/10 01:24:46;;;;;;;91.13;6.38;;;;;;;;;;5083934;28;20493;-53
2023/08/10 01:27:12;;;;;;;100.47;6.95;;;;;;;;;;5080457;28;20115;-52
2023/08/10 01:29:37;;;;;;;111.20;7.90;;;;;;;;;;5082972;28;20020;-53
2023/08/10 01:32:03;;;;;;;153.63;10.82;;;;;;;;;;5063113;28;20417;-53
2023/08/10 01:34:28;;;;;;;121.72;8.35;;;;;;;;;;5082127;28;20476;-53
2023/08/10 01:36:53;;;;;;;159.43;10.82;;;;;;;;;;5079166;28;20520;-54
2023/08/10 01:39:18;;;;;;;98.97;7.57;;;;;;;;;;5081895;28;20055;-52
2023/08/10 01:41:44;;;;;;;118.57;8.40;;;;;;;;;;5080015;28;20466;-54
2023/08/10 01:44:09;;;;;;;104.75;8.20;;;;;;;;;;5077694;28;20042;-54
2023/08/10 01:46:36;;;;;;;101.53;7.68;;;;;;;;;;5081076;28;20847;-52
2023/08/10 01:49:02;;;;;;;148.82;9.85;;;;;;;;;;5080952;28;20649;-52
2023/08/10 01:51:28;;;;;;;91.45;7.32;;;;;;;;;;5063641;28;20159;-52
2023/08/10 01:53:54;;;;;;;136.25;9.88;;;;;;;;;;5079039;28;20446;-53
2023/08/10 01:56:20;;;;;;;111.47;7.80;;;;;;;;;;5062161;28;20038;-53
2023/08/10 01:58:46;;;;;;;103.50;7.32;;;;;;;;;;5080997;28;20028;-54
2023/08/10 02:01:11;;;;;;;84.80;6.88;;;;;;;;;;5078957;28;20071;-53
2023/08/10 02:03:36;;;;;;;99.65;7.25;;;;;;;;;;5081626;28;20036;-53
2023/08/10 02:06:02;;;;;;;154.93;10.63;;;;;;;;;;5079061;28;20441;-52
2023/08/10 02:08:27;;;;;;;102.55;7.50;;;;;;;;;;5080292;28;20370;-52
2023/08/10 02:10:52;;;;;;;139.70;9.32;;;;;;;;;;5078304;28;20145;-53
2023/08/10 02:13:18;;;;;;;106.87;7.33;;;;;;;;;;5082807;28;20670;-52
2023/08/10 02:15:43;;;;;;;94.45;7.13;;;;;;;;;;5080234;28;20794;-54
2023/08/10 02:18:11;;;;;;;154.48;10.70;;;;;;;;;;5077667;28;20026;-53
2023/08/10 02:20:36;;;;;;;105.50;7.53;;;;;;;;;;5080455;28;20036;-53
2023/08/10 02:23:01;;;;;;;145.93;10.43;;;;;;;;;;5078452;28;20027;-54
2023/08/10 02:25:27;;;;;;;111.22;7.93;;;;;;;;;;5080237;28;20265;-53
2023/08/10 02:27:52;;;;;;;94.97;6.72;;;;;;;;;;5078853;28;20131;-52
2023/08/10 02:30:17;;;;;;;83.50;6.30;;;;;;;;;;5080937;28;20608;-53
2023/08/10 02:32:43;;;;;;;103.03;7.35;;;;;;;;;;5079850;28;20027;-53
2023/08/10 02:35:09;;;;;;;165.73;11.35;;;;;;;;;;5079157;28;20019;-54
2023/08/10 02:37:34;;;;;;;86.15;6.75;;;;;;;;;;5081799;28;20009;-52
2023/08/10 02:40:00;;;;;;;143.18;10.25;;;;;;;;;;5079831;28;20036;-53
2023/08/10 02:42:26;;;;;;;101.45;6.90;;;;;;;;;;5079541;28;20054;-52
2023/08/10 02:44:51;;;;;;;93.60;7.25;;;;;;;;;;5080160;28;20012;-54
2023/08/10 02:47:17;;;;;;;105.22;7.22;;;;;;;;;;5079414;28;20032;-53
2023/08/10 02:49:42;;;;;;;106.78;7.45;;;;;;;;;;5079816;28;20012;-51
2023/08/10 02:52:07;;;;;;;146.60;10.10;;;;;;;;;;5081362;28;20024;-55
2023/08/10 02:54:32;;;;;;;164.63;8.30;;;;;;;;;;5080414;28;20592;-52
2023/08/10 02:56:58;;;;;;;185.30;11.98;;;;;;;;;;5076730;28;20028;-52
2023/08/10 02:59:23;;;;;;;114.68;7.68;;;;;;;;;;5080928;28;20512;-53
2023/08/10 03:01:48;;;;;;;112.22;7.80;;;;;;;;;;5079192;28;20036;-53
2023/08/10 03:04:13;;;;;;;99.68;7.10;;;;;;;;;;5080115;28;20028;-54
2023/08/10 03:06:39;;;;;;;77.93;6.75;;;;;;;;;;5081036;28;20040;-54
2023/08/10 03:09:04;;;;;;;177.70;11.88;;;;;;;;;;5081544;28;20490;-52
2023/08/10 03:11:30;;;;;;;98.13;6.88;;;;;;;;;;5080872;28;20146;-53
2023/08/10 03:13:55;;;;;;;109.32;7.35;;;;;;;;;;5080627;28;20435;-54
2023/08/10 03:16:20;;;;;;;99.28;7.00;;;;;;;;;;5079015;28;20028;-53
2023/08/10 03:18:45;;;;;;;109.63;7.80;;;;;;;;;;5079850;28;20107;-53
2023/08/10 03:21:11;;;;;;;162.17;10.50;;;;;;;;;;5082011;28;20270;-55
2023/08/10 03:23:36;;;;;;;126.05;7.75;;;;;;;;;;5084837;28;20270;-52
2023/08/10 03:26:01;;;;;;;189.10;10.87;;;;;;;;;;5080558;28;20039;-53
2023/08/10 03:28:26;;;;;;;102.45;7.25;;;;;;;;;;5084043;28;20292;-54
2023/08/10 03:30:52;;;;;;;144.27;8.87;;;;;;;;;;5083872;28;20032;-53
2023/08/10 03:33:17;;;;;;;108.28;8.02;;;;;;;;;;5082896;28;20288;-54
2023/08/10 03:35:42;;;;;;;74.43;5.65;;;;;;;;;;5082379;28;20422;-53
2023/08/10 03:38:08;;;;;;;178.17;11.50;;;;;;;;;;5081991;28;20047;-53
2023/08/10 03:40:34;;;;;;;139.60;7.90;;;;;;;;;;5082750;28;20729;-51
2023/08/10 03:42:59;;;;;;;143.60;9.55;;;;;;;;;;5083857;28;20403;-53
2023/08/10 03:45:24;;;;;;;140.77;8.50;;;;;;;;;;5083723;28;20028;-52
2023/08/10 03:47:49;;;;;;;96.65;6.55;;;;;;;;;;5082597;28;20265;-52
2023/08/10 03:50:14;;;;;;;81.17;6.00;;;;;;;;;;5080528;27;20446;-54
2023/08/10 03:52:40;;;;;;;94.35;6.47;;;;;;;;;;5083786;28;20612;-53
2023/08/10 03:55:06;;;;;;;142.40;9.43;;;;;;;;;;5082701;28;20022;-52
2023/08/10 03:57:32;;;;;;;84.95;6.40;;;;;;;;;;5083365;28;20012;-52
2023/08/10 03:59:58;;;;;;;113.95;7.03;;;;;;;;;;5081660;27;20042;-51
2023/08/10 04:02:24;;;;;;;93.38;6.32;;;;;;;;;;5071062;28;20102;-53
2023/08/10 04:04:49;;;;;;;96.00;6.85;;;;;;;;;;5084810;28;20024;-53
2023/08/10 04:07:14;;;;;;;151.83;10.13;;;;;;;;;;5082739;28;20461;-54
2023/08/10 04:09:44;;;;;;;100.65;6.63;;;;;;;;;;5082746;28;20437;-52
2023/08/10 04:12:09;;;;;;;144.25;10.27;;;;;;;;;;5064849;28;20059;-53
2023/08/10 04:14:35;;;;;;;87.65;6.30;;;;;;;;;;5082782;27;20102;-53
2023/08/10 04:17:00;;;;;;;147.50;9.45;;;;;;;;;;5080280;28;20530;-53
2023/08/10 04:19:25;;;;;;;98.27;7.00;;;;;;;;;;5082134;28;20004;-53
2023/08/10 04:21:50;;;;;;;96.68;6.38;;;;;;;;;;5082301;28;20285;-53
2023/08/10 04:24:16;;;;;;;158.38;10.38;;;;;;;;;;5079520;28;20030;-52
2023/08/10 04:26:41;;;;;;;83.80;6.28;;;;;;;;;;5081007;28;20031;-53
2023/08/10 04:29:06;;;;;;;124.30;8.15;;;;;;;;;;5080979;28;20393;-55
2023/08/10 04:31:32;;;;;;;102.87;6.67;;;;;;;;;;5083322;28;20032;-54
2023/08/10 04:33:57;;;;;;;97.32;6.60;;;;;;;;;;5083243;28;20304;-54
2023/08/10 04:36:22;;;;;;;85.00;5.97;;;;;;;;;;5080613;28;20315;-54
2023/08/10 04:38:47;;;;;;;107.40;6.83;;;;;;;;;;5083264;28;20027;-52
2023/08/10 04:41:13;;;;;;;116.30;7.43;;;;;;;;;;5081288;28;20278;-53
2023/08/10 04:43:38;;;;;;;89.45;6.22;;;;;;;;;;5082472;28;20261;-54
2023/08/10 04:46:03;;;;;;;172.10;11.00;;;;;;;;;;5080015;28;20043;-52
2023/08/10 04:48:29;;;;;;;73.40;5.40;;;;;;;;;;5082206;28;20270;-53
2023/08/10 04:50:54;;;;;;;99.07;6.85;;;;;;;;;;5082224;28;20815;-53
2023/08/10 04:53:19;;;;;;;103.72;7.05;;;;;;;;;;5082160;28;20024;-55
2023/08/10 04:55:44;;;;;;;82.43;5.90;;;;;;;;;;5081883;28;20110;-52
2023/08/10 04:58:09;;;;;;;128.65;9.10;;;;;;;;;;5080099;28;20291;-53
2023/08/10 05:00:35;;;;;;;79.20;5.93;;;;;;;;;;5081154;28;20032;-52
2023/08/10 05:03:00;;;;;;;87.70;6.03;;;;;;;;;;5083558;28;20278;-52
2023/08/10 05:05:25;;;;;;;70.25;5.25;;;;;;;;;;5081883;28;20031;-53
2023/08/10 05:07:51;;;;;;;104.87;7.53;;;;;;;;;;5082830;28;20103;-53
2023/08/10 05:10:16;;;;;;;141.20;9.93;;;;;;;;;;5080890;27;20407;-52
2023/08/10 05:12:41;;;;;;;76.40;6.25;;;;;;;;;;5082011;28;20163;-53
2023/08/10 05:15:09;;;;;;;147.80;10.48;;;;;;;;;;5081375;28;20028;-55
2023/08/10 05:17:34;;;;;;;81.00;6.60;;;;;;;;;;5083521;28;20020;-52
2023/08/10 05:20:00;;;;;;;102.25;7.47;;;;;;;;;;5083109;28;20020;-54
2023/08/10 05:22:25;;;;;;;88.97;7.15;;;;;;;;;;5079673;28;20127;-53
2023/08/10 05:24:50;;;;;;;92.65;7.43;;;;;;;;;;5082684;28;20069;-52
2023/08/10 05:27:16;;;;;;;121.97;9.10;;;;;;;;;;5080919;28;20070;-54
2023/08/10 05:29:41;;;;;;;108.72;8.70;;;;;;;;;;5081691;28;20102;-54
2023/08/10 05:32:06;;;;;;;136.60;10.98;;;;;;;;;;5079196;28;21038;-54
2023/08/10 05:34:31;;;;;;;100.53;8.48;;;;;;;;;;5082302;28;20015;-54
2023/08/10 05:36:57;;;;;;;111.35;9.38;;;;;;;;;;5079851;28;20105;-54
2023/08/10 05:39:23;;;;;;;100.95;9.15;;;;;;;;;;5079860;28;20370;-54
2023/08/10 05:41:48;;;;;;;97.55;8.63;;;;;;;;;;5082115;28;20421;-54
2023/08/10 05:44:13;;;;;;;143.15;11.60;;;;;;;;;;5080424;28;20216;-53
2023/08/10 05:46:38;;;;;;;84.63;7.70;;;;;;;;;;5081769;28;20519;-54
2023/08/10 05:49:04;;;;;;;104.13;9.23;;;;;;;;;;5080805;28;20039;-55
2023/08/10 05:51:29;;;;;;;103.15;9.63;;;;;;;;;;5081904;28;20024;-54
2023/08/10 05:53:54;;;;;;;93.03;9.93;;;;;;;;;;5082635;28;20351;-53
2023/08/10 05:56:20;;;;;;;143.80;11.52;;;;;;;;;;5079234;28;20281;-53
2023/08/10 05:58:45;;;;;;;95.05;8.10;;;;;;;;;;5081679;28;20036;-53
2023/08/10 06:01:11;;;;;;;139.48;11.18;;;;;;;;;;5081382;28;20040;-55
2023/08/10 06:03:37;;;;;;;80.72;6.68;;;;;;;;;;5082242;28;20056;-53
2023/08/10 06:06:08;;;;;;;101.37;8.13;;;;;;;;;;5079134;28;20085;-55
2023/08/10 06:08:33;;;;;;;90.28;6.55;;;;;;;;;;5082293;28;20757;-54
2023/08/10 06:10:59;;;;;;;96.95;7.30;;;;;;;;;;5080405;28;20869;-53
2023/08/10 06:13:24;;;;;;;100.32;7.65;;;;;;;;;;5081259;28;20042;-56
2023/08/10 06:15:50;;;;;;;104.70;8.17;;;;;;;;;;5079585;28;20032;-53
2023/08/10 06:18:16;;;;;;;132.88;10.18;;;;;;;;;;5078535;28;20605;-55
2023/08/10 06:20:41;;;;;;;82.18;6.80;;;;;;;;;;5079708;28;20043;-55
2023/08/10 06:23:06;;;;;;;84.00;7.25;;;;;;;;;;5080269;28;20080;-53
2023/08/10 06:25:32;;;;;;;90.90;7.67;;;;;;;;;;5080844;28;20111;-54
2023/08/10 06:28:00;;;;;;;88.20;7.38;;;;;;;;;;5082371;28;20365;-54
2023/08/10 06:30:25;;;;;;;79.03;7.38;;;;;;;;;;5080362;28;21232;-53
2023/08/10 06:32:51;;;;;;;85.20;7.27;;;;;;;;;;5081005;28;20095;-55
2023/08/10 06:35:17;;;;;;;109.50;9.20;;;;;;;;;;5079432;28;20769;-53
2023/08/10 06:37:43;;;;;;;84.05;7.03;;;;;;;;;;5066982;28;20016;-53
2023/08/10 06:40:09;;;;;;;106.13;8.88;;;;;;;;;;5079042;28;20073;-54
2023/08/10 06:42:35;;;;;;;75.93;6.70;;;;;;;;;;5081944;28;20423;-53
2023/08/10 06:45:01;;;;;;;93.13;8.18;;;;;;;;;;5084915;28;20069;-53
2023/08/10 06:47:26;;;;;;;76.53;6.82;;;;;;;;;;5078016;28;20086;-53
2023/08/10 06:49:51;;;;;;;66.17;6.60;;;;;;;;;;5082247;28;20020;-53
2023/08/10 06:52:17;;;;;;;126.00;10.60;;;;;;;;;;5078488;28;20298;-53
2023/08/10 06:54:42;;;;;;;77.65;7.30;;;;;;;;;;5086011;28;20008;-54
2023/08/10 06:57:07;;;;;;;62.78;6.78;;;;;;;;;;5083568;28;20039;-53
2023/08/10 06:59:33;;;;;;;61.93;6.83;;;;;;;;;;5085620;28;20028;-55
2023/08/10 07:01:58;;;;;;;88.03;7.53;;;;;;;;;;5085144;28;20347;-54
2023/08/10 07:04:24;;;;;;;90.22;8.38;;;;;;;;;;5086263;28;20266;-55
2023/08/10 07:06:49;;;;;;;53.00;5.95;;;;;;;;;;5088076;28;20559;-54
2023/08/10 07:09:14;;;;;;;98.47;8.25;;;;;;;;;;5086874;28;20058;-54
2023/08/10 07:11:40;;;;;;;48.58;10.63;;;;;;;;;;5088461;28;20461;-54
2023/08/10 07:14:05;;;;;;;68.68;23.88;;;;;;;;;;5088702;28;20529;-55
2023/08/10 07:16:31;;;;;;;65.00;6.47;;;;;;;;;;5087228;28;20128;-55
2023/08/10 07:18:57;;;;;;;47.42;6.55;;;;;;;;;;5086794;28;20019;-54
2023/08/10 07:21:22;;;;;;;101.65;20.65;;;;;;;;;;5086425;28;20065;-57
2023/08/10 07:23:48;;;;;;;62.13;8.88;;;;;;;;;;5088597;28;20475;-53
2023/08/10 07:26:13;;;;;;;142.52;82.95;;;;;;;;;;5088224;28;20590;-57
2023/08/10 07:28:39;;;;;;;125.10;86.32;;;;;;;;;;5090328;28;20480;-55
2023/08/10 07:31:04;;;;;;;253.98;188.98;;;;;;;;;;5086375;28;20706;-55
2023/08/10 07:33:29;;;;;;;290.50;263.23;;;;;;;;;;5088841;28;20031;-56
2023/08/10 07:35:55;;;;;;;487.90;441.80;;;;;;;;;;5089042;28;20027;-57
2023/08/10 07:38:20;;;;;;;268.10;171.68;;;;;;;;;;5085949;28;20488;-58
2023/08/10 07:40:46;;;;;;;148.40;127.37;;;;;;;;;;5088933;28;20396;-57
2023/08/10 07:43:11;;;;;;;286.87;256.23;;;;;;;;;;5087025;28;20258;-57
2023/08/10 07:45:36;;;;;;;391.50;354.17;;;;;;;;;;5089051;28;20353;-55
2023/08/10 07:48:02;;;;;;;283.98;255.45;;;;;;;;;;5071386;28;20032;-55
2023/08/10 07:50:28;;;;;;;360.45;324.48;;;;;;;;;;5086390;28;21239;-57
2023/08/10 07:52:53;;;;;;;207.93;184.02;;;;;;;;;;5089846;28;20015;-56
2023/08/10 07:55:19;;;;;;;346.90;312.08;;;;;;;;;;5087346;28;20388;-58
2023/08/10 07:57:44;;;;;;;306.30;277.65;;;;;;;;;;5089555;28;20545;-56
2023/08/10 08:00:10;;;;;;;354.33;321.87;;;;;;;;;;5086305;28;20134;-59
2023/08/10 08:02:35;;;;;;;281.17;253.23;;;;;;;;;;5087767;28;20389;-55
2023/08/10 08:05:01;;;;;;;346.15;309.33;;;;;;;;;;5084844;28;20631;-55
2023/08/10 08:07:26;;;;;;;278.33;232.00;;;;;;;;;;5085288;28;20024;-55
2023/08/10 08:09:52;;;;;;;278.65;223.23;;;;;;;;;;5088762;28;20628;-57
2023/08/10 08:12:17;;;;;;;350.90;316.88;;;;;;;;;;5085637;28;20100;-55
2023/08/10 08:14:43;;;;;;;229.38;206.07;;;;;;;;;;5090712;28;20269;-56
2023/08/10 08:17:08;;;;;;;308.75;279.58;;;;;;;;;;5087281;28;20122;-57
2023/08/10 08:19:36;;;;;;;138.68;123.88;;;;;;;;;;5085945;28;20249;-56
2023/08/10 08:22:01;;;;;;;154.25;130.48;;;;;;;;;;5085790;28;20039;-54
2023/08/10 08:24:27;;;;;;;229.67;203.67;;;;;;;;;;5085960;28;20024;-52
2023/08/10 08:26:53;;;;;;;157.18;132.40;;;;;;;;;;5087621;28;20277;-53
2023/08/10 08:29:18;;;;;;;223.75;162.95;;;;;;;;;;5086423;28;20046;-54
2023/08/10 08:31:43;;;;;;;198.47;179.13;;;;;;;;;;5085853;28;20028;-56
2023/08/10 08:34:09;;;;;;;187.50;168.35;;;;;;;;;;5072768;28;20474;-58
2023/08/10 08:36:34;;;;;;;195.30;167.77;;;;;;;;;;5085181;28;20339;-58
2023/08/10 08:38:59;;;;;;;196.43;176.43;;;;;;;;;;5086225;28;20274;-56
2023/08/10 08:41:26;;;;;;;310.67;276.83;;;;;;;;;;5085338;28;20043;-54
2023/08/10 08:43:52;;;;;;;186.80;167.90;;;;;;;;;;5087932;28;20027;-57
2023/08/10 08:46:22;;;;;;;188.80;155.45;;;;;;;;;;5085922;28;20062;-52
2023/08/10 08:48:47;;;;;;;109.30;96.72;;;;;;;;;;5076687;28;20501;-55
2023/08/10 08:51:12;;;;;;;125.53;108.10;;;;;;;;;;5086025;28;20031;-54
2023/08/10 08:53:38;;;;;;;237.38;213.63;;;;;;;;;;5086133;28;20258;-53
2023/08/10 08:56:03;;;;;;;183.23;163.75;;;;;;;;;;5067275;28;20036;-53
2023/08/10 08:58:29;;;;;;;149.38;83.97;;;;;;;;;;5085092;28;20044;-55
2023/08/10 09:00:54;;;;;;;199.80;178.18;;;;;;;;;;5084036;28;20523;-56
2023/08/10 09:03:20;;;;;;;130.93;93.50;;;;;;;;;;5085611;28;20180;-57
2023/08/10 09:05:46;;;;;;;187.45;168.30;;;;;;;;;;5086333;28;20039;-55
2023/08/10 09:08:15;;;;;;;108.72;79.25;;;;;;;;;;5086116;28;20019;-55
2023/08/10 09:10:41;;;;;;;131.95;118.32;;;;;;;;;;5086771;28;20039;-55
2023/08/10 09:13:24;;;;;;;110.05;86.25;;;;;;;;;;5087215;28;20035;-53
2023/08/10 09:16:05;;;;;;;156.05;139.25;;;;;;;;;;5087127;28;20039;-55
2023/08/10 09:18:32;;;;;;;200.65;141.93;;;;;;;;;;5084999;28;20019;-56
2023/08/10 09:21:05;;;;;;;182.60;164.07;;;;;;;;;;5086735;28;20032;-55
2023/08/10 09:23:33;;;;;;;212.20;167.25;;;;;;;;;;5085793;28;20051;-52
2023/08/10 09:25:59;;;;;;;308.73;274.90;;;;;;;;;;5086115;28;20473;-56
2023/08/10 09:28:24;;;;;;;178.07;134.87;;;;;;;;;;5086500;28;20533;-55
2023/08/10 09:30:49;;;;;;;200.00;179.23;;;;;;;;;;5085568;28;20509;-57
2023/08/10 09:33:27;;;;;;;237.40;203.43;;;;;;;;;;5085795;28;20020;-55
2023/08/10 09:35:58;;;;;;;156.77;140.40;;;;;;;;;;5084762;28;20039;-55
2023/08/10 09:38:23;;;;;;;250.65;215.70;;;;;;;;;;5083824;28;20030;-55
2023/08/10 09:40:48;;;;;;;258.33;201.77;;;;;;;;;;5085388;28;20044;-54
2023/08/10 09:43:13;;;;;;;250.20;224.20;;;;;;;;;;5085238;28;20020;-57
2023/08/10 09:45:40;;;;;;;233.77;211.97;;;;;;;;;;5084998;28;20036;-54
2023/08/10 09:48:10;;;;;;;294.10;264.58;;;;;;;;;;5086607;28;20578;-56
2023/08/10 09:50:35;;;;;;;261.50;198.80;;;;;;;;;;5084056;28;20040;-54
2023/08/10 09:53:01;;;;;;;366.13;326.80;;;;;;;;;;5084845;28;20023;-55
2023/08/10 09:55:26;;;;;;;179.98;123.78;;;;;;;;;;5083845;28;20034;-55
2023/08/10 09:57:52;;;;;;;138.90;108.82;;;;;;;;;;5070803;28;20036;-54
2023/08/10 10:00:22;;;;;;;242.95;218.55;;;;;;;;;;5083726;28;20432;-55
2023/08/10 10:02:47;;;;;;;116.60;95.55;;;;;;;;;;5085976;28;20035;-55
2023/08/10 10:05:14;;;;;;;316.13;285.13;;;;;;;;;;5085757;28;20411;-57
2023/08/10 10:07:40;;;;;;;112.15;101.10;;;;;;;;;;5085193;28;20023;-55
2023/08/10 10:10:12;;;;;;;190.68;172.60;;;;;;;;;;5083867;28;20092;-57
2023/08/10 10:12:37;;;;;;;126.03;61.20;;;;;;;;;;5083990;28;20744;-53
2023/08/10 10:15:03;;;;;;;350.03;314.07;;;;;;;;;;5085085;28;20024;-58
2023/08/10 10:17:28;;;;;;;266.23;187.05;;;;;;;;;;5083940;28;20113;-55
2023/08/10 10:19:53;;;;;;;201.07;181.17;;;;;;;;;;5085105;28;20016;-56
2023/08/10 10:22:20;;;;;;;157.90;141.15;;;;;;;;;;5067742;28;20126;-54
2023/08/10 10:24:46;;;;;;;110.50;94.38;;;;;;;;;;5085941;28;20020;-55
2023/08/10 10:27:12;;;;;;;211.38;190.32;;;;;;;;;;5085160;28;20079;-56
2023/08/10 10:29:40;;;;;;;294.75;183.00;;;;;;;;;;5086180;28;20516;-56
2023/08/10 10:32:13;;;;;;;265.13;227.95;;;;;;;;;;5088400;28;20019;-55
2023/08/10 10:34:39;;;;;;;208.85;143.70;;;;;;;;;;5087857;28;20058;-56
2023/08/10 10:37:09;;;;;;;105.18;67.22;;;;;;;;;;5088769;28;20031;-57
2023/08/10 10:39:34;;;;;;;193.10;129.57;;;;;;;;;;5087364;28;20461;-55
2023/08/10 10:41:59;;;;;;;114.15;94.82;;;;;;;;;;5088813;28;20039;-56
2023/08/10 10:44:45;;;;;;;131.23;69.20;;;;;;;;;;5087892;28;20019;-54
2023/08/10 10:47:16;;;;;;;112.97;93.55;;;;;;;;;;5089409;28;20068;-57
2023/08/10 10:49:51;;;;;;;138.45;123.90;;;;;;;;;;5089288;28;20537;-56
2023/08/10 10:52:34;;;;;;;244.27;220.32;;;;;;;;;;5089106;28;20123;-60
2023/08/10 10:55:00;;;;;;;96.00;58.65;;;;;;;;;;5089833;28;20023;-57
2023/08/10 10:57:26;;;;;;;160.18;133.82;;;;;;;;;;5088680;28;20039;-56
2023/08/10 10:59:51;;;;;;;144.07;129.75;;;;;;;;;;5089593;28;20020;-56
2023/08/10 11:02:17;;;;;;;144.95;130.15;;;;;;;;;;5090364;28;20036;-58
2023/08/10 11:04:42;;;;;;;89.70;73.13;;;;;;;;;;5089456;27;20016;-57
2023/08/10 11:07:07;;;;;;;287.87;259.57;;;;;;;;;;5088902;28;20610;-56
2023/08/10 11:09:32;;;;;;;229.97;162.63;;;;;;;;;;5087678;28;20015;-57
2023/08/10 11:12:00;;;;;;;105.80;63.67;;;;;;;;;;5086995;28;20274;-56
2023/08/10 11:14:28;;;;;;;195.55;168.57;;;;;;;;;;5090733;28;20038;-56
2023/08/10 11:16:54;;;;;;;150.93;124.18;;;;;;;;;;5088057;28;20119;-55
2023/08/10 11:19:19;;;;;;;151.10;118.60;;;;;;;;;;5087478;28;20016;-56
2023/08/10 11:21:44;;;;;;;89.63;80.13;;;;;;;;;;5078450;28;20659;-58
2023/08/10 11:24:10;;;;;;;126.78;112.88;;;;;;;;;;5087734;27;20107;-56
2023/08/10 11:26:36;;;;;;;165.68;125.47;;;;;;;;;;5087673;28;20059;-57
2023/08/10 11:29:01;;;;;;;169.48;152.23;;;;;;;;;;5090200;28;20030;-57
2023/08/10 11:31:26;;;;;;;154.43;98.03;;;;;;;;;;5086115;28;20599;-56
2023/08/10 11:33:52;;;;;;;407.17;238.13;;;;;;;;;;5090201;28;20423;-57
2023/08/10 11:36:17;;;;;;;197.80;176.85;;;;;;;;;;5090017;28;20409;-55
2023/08/10 11:38:45;;;;;;;388.30;270.73;;;;;;;;;;5088356;28;22038;-56
2023/08/10 11:41:10;;;;;;;130.05;116.63;;;;;;;;;;5085740;28;20102;-57
2023/08/10 11:43:36;;;;;;;155.15;99.43;;;;;;;;;;5072581;28;20477;-55
2023/08/10 11:46:01;;;;;;;139.53;109.37;;;;;;;;;;5087787;28;20024;-55
2023/08/10 11:48:26;;;;;;;288.40;193.20;;;;;;;;;;5088119;28;20020;-56
2023/08/10 11:50:58;;;;;;;195.60;175.27;;;;;;;;;;5088915;28;20326;-57
2023/08/10 11:53:25;;;;;;;156.73;120.60;;;;;;;;;;5086345;28;20285;-55
2023/08/10 11:55:51;;;;;;;275.42;249.25;;;;;;;;;;5086565;28;20123;-57
2023/08/10 11:58:17;;;;;;;314.00;282.35;;;;;;;;;;5088827;28;20019;-59
2023/08/10 12:00:46;;;;;;;166.63;66.78;;;;;;;;;;5083918;28;20686;-54
2023/08/10 12:03:22;;;;;;;130.68;104.75;;;;;;;;;;5086675;28;20032;-58
2023/08/10 12:05:49;;;;;;;363.35;247.40;;;;;;;;;;5085581;28;20405;-55
2023/08/10 12:08:27;;;;;;;227.40;192.85;;;;;;;;;;5089729;28;20042;-55
2023/08/10 12:11:02;;;;;;;140.18;101.50;;;;;;;;;;5087430;28;20096;-55
2023/08/10 12:13:28;;;;;;;318.65;277.88;;;;;;;;;;5085152;28;20027;-56
2023/08/10 12:15:53;;;;;;;285.98;212.20;;;;;;;;;;5086672;28;20028;-56
2023/08/10 12:18:19;;;;;;;247.18;203.07;;;;;;;;;;5086375;28;20576;-54
2023/08/10 12:20:46;;;;;;;327.33;115.68;;;;;;;;;;5087025;28;20537;-54
2023/08/10 12:23:12;;;;;;;246.48;224.05;;;;;;;;;;5086372;28;20024;-55
2023/08/10 12:25:38;;;;;;;331.10;213.00;;;;;;;;;;5084874;28;20135;-57
2023/08/10 12:28:04;;;;;;;480.55;403.13;;;;;;;;;;5086483;28;20118;-56
2023/08/10 12:30:29;;;;;;;424.45;383.30;;;;;;;;;;5085824;28;20496;-56
2023/08/10 12:32:55;;;;;;;136.00;73.70;;;;;;;;;;5087074;28;20034;-55
2023/08/10 12:35:20;;;;;;;243.32;219.48;;;;;;;;;;5088384;28;20258;-56
2023/08/10 12:37:47;;;;;;;140.40;112.17;;;;;;;;;;5087121;28;21870;-55
2023/08/10 12:40:12;;;;;;;130.20;107.18;;;;;;;;;;5086258;28;20031;-55
2023/08/10 12:42:38;;;;;;;151.50;88.63;;;;;;;;;;5085494;27;20099;-56
2023/08/10 12:45:04;;;;;;;182.13;160.73;;;;;;;;;;5088686;28;20020;-55
2023/08/10 12:47:29;;;;;;;363.30;310.95;;;;;;;;;;5085211;28;20028;-55
2023/08/10 12:49:56;;;;;;;276.15;217.52;;;;;;;;;;5089516;28;20011;-55
2023/08/10 12:52:22;;;;;;;92.93;48.85;;;;;;;;;;5088424;28;20039;-55
2023/08/10 12:54:47;;;;;;;291.48;216.43;;;;;;;;;;5086535;28;21489;-55
2023/08/10 12:57:12;;;;;;;393.17;322.35;;;;;;;;;;5085454;28;20074;-54
2023/08/10 12:59:38;;;;;;;334.13;282.97;;;;;;;;;;5085430;28;20031;-55
2023/08/10 13:02:03;;;;;;;184.60;164.40;;;;;;;;;;5085535;28;20289;-54
2023/08/10 13:04:28;;;;;;;304.27;267.20;;;;;;;;;;5087848;28;20092;-53
2023/08/10 13:06:54;;;;;;;262.27;234.32;;;;;;;;;;5087699;28;20281;-56
2023/08/10 13:09:20;;;;;;;292.10;228.07;;;;;;;;;;5087821;28;20023;-55
2023/08/10 13:11:45;;;;;;;273.58;204.85;;;;;;;;;;5068086;28;20047;-56
2023/08/10 13:14:10;;;;;;;346.40;312.38;;;;;;;;;;5086036;28;20015;-55
2023/08/10 13:16:36;;;;;;;190.10;71.73;;;;;;;;;;5075352;28;20035;-55
2023/08/10 13:19:01;;;;;;;220.57;197.30;;;;;;;;;;5088579;28;20638;-56
2023/08/10 13:21:26;;;;;;;320.92;290.92;;;;;;;;;;5084124;28;20024;-55
2023/08/10 13:23:51;;;;;;;223.90;201.53;;;;;;;;;;5085593;28;20426;-55
2023/08/10 13:26:17;;;;;;;105.77;69.93;;;;;;;;;;5086722;28;20278;-55
2023/08/10 13:28:42;;;;;;;168.67;89.93;;;;;;;;;;5085226;28;20274;-55
2023/08/10 13:31:07;;;;;;;152.33;132.50;;;;;;;;;;5085464;28;20365;-56
2023/08/10 13:33:32;;;;;;;317.40;258.70;;;;;;;;;;5083154;28;20270;-56
2023/08/10 13:36:00;;;;;;;417.52;377.55;;;;;;;;;;5085369;28;20270;-56
2023/08/10 13:38:25;;;;;;;178.27;149.48;;;;;;;;;;5085532;28;20603;-55
2023/08/10 13:40:50;;;;;;;140.90;120.25;;;;;;;;;;5065545;28;20051;-55
2023/08/10 13:43:15;;;;;;;423.50;379.35;;;;;;;;;;5087152;28;20043;-55
2023/08/10 13:45:41;;;;;;;151.13;70.00;;;;;;;;;;5083717;28;20063;-55
2023/08/10 13:48:06;;;;;;;209.97;189.23;;;;;;;;;;5087987;28;20026;-55
2023/08/10 13:50:31;;;;;;;395.00;358.97;;;;;;;;;;5083800;28;20118;-54
2023/08/10 13:52:56;;;;;;;283.83;256.73;;;;;;;;;;5086038;28;20698;-56
2023/08/10 13:55:22;;;;;;;171.70;149.00;;;;;;;;;;5086420;28;20254;-55
2023/08/10 13:57:47;;;;;;;229.23;176.07;;;;;;;;;;5084988;28;20098;-55
2023/08/10 14:00:14;;;;;;;138.33;101.00;;;;;;;;;;5085795;28;20024;-56
2023/08/10 14:02:39;;;;;;;149.45;50.95;;;;;;;;;;5085575;28;20785;-55